This is the latest recevied weather packets stored in our database for station/object N8ESC. If no packets are shown the sender has not sent any weather packets the latest 1 day(s).
| Time | Temp. | Humidity | Pressure | Rain* | Wind** | Luminosity | Snow |
|---|---|---|---|---|---|---|---|
| 1778044947 | 3.89° C | 50% | 1009.8 hPa | 0 mm | 1.34 m/s, 353° | 0 W/m² | - |
| 1778044644 | 3.89° C | 49% | 1009.9 hPa | 0 mm | 1.34 m/s, 298° | 0 W/m² | - |
| 1778044340 | 3.89° C | 49% | 1009.8 hPa | 0 mm | 0.89 m/s, 336° | 0 W/m² | - |
| 1778044039 | 4.44° C | 49% | 1009.7 hPa | 0 mm | 0.89 m/s, 285° | 0 W/m² | - |
| 1778043735 | 4.44° C | 49% | 1009.8 hPa | 0 mm | 0.45 m/s, 347° | 0 W/m² | - |
| 1778043432 | 4.44° C | 48% | 1009.7 hPa | 0 mm | 1.79 m/s, 297° | 0 W/m² | - |
| 1778043128 | 4.44° C | 48% | 1009.7 hPa | 0 mm | 0.89 m/s, 9° | 0 W/m² | - |
| 1778042826 | 4.44° C | 48% | 1009.8 hPa | 0 mm | 1.34 m/s, 356° | 0 W/m² | - |
| 1778042523 | 4.44° C | 48% | 1009.8 hPa | 0 mm | 1.34 m/s, 292° | 0 W/m² | - |
| 1778042220 | 4.44° C | 48% | 1009.6 hPa | 0 mm | 1.34 m/s, 22° | 0 W/m² | - |
| 1778041918 | 4.44° C | 48% | 1009.5 hPa | 0 mm | 2.68 m/s, 325° | 0 W/m² | - |
| 1778041617 | 4.44° C | 48% | 1009.6 hPa | 0 mm | 2.24 m/s, 324° | 0 W/m² | - |
| 1778041315 | 5° C | 48% | 1009.8 hPa | 0 mm | 1.34 m/s, 322° | 0 W/m² | - |
| 1778041013 | 5° C | 49% | 1009.4 hPa | 0 mm | 2.68 m/s, 11° | 0 W/m² | - |
| 1778040709 | 5° C | 50% | 1009.6 hPa | 0 mm | 0.89 m/s, 347° | 0 W/m² | - |
| 1778040407 | 5° C | 50% | 1009.3 hPa | 0 mm | 1.79 m/s, 358° | 0 W/m² | - |
| 1778040104 | 5° C | 50% | 1009.4 hPa | 0 mm | 1.34 m/s, 323° | 0 W/m² | - |
| 1778039801 | 5° C | 50% | 1009.4 hPa | 0 mm | 1.79 m/s, 336° | 0 W/m² | - |
| 1778039497 | 5° C | 50% | 1009.3 hPa | 0 mm | 1.79 m/s, 7° | 0 W/m² | - |
| 1778039195 | 5° C | 50% | 1009.4 hPa | 0 mm | 1.34 m/s, 332° | 0 W/m² | - |
| 1778038891 | 5° C | 50% | 1009.1 hPa | 0 mm | 1.79 m/s, 12° | 0 W/m² | - |
| 1778038589 | 5° C | 50% | 1009.2 hPa | 0 mm | 1.79 m/s, 266° | 0 W/m² | - |
| 1778038286 | 5° C | 50% | 1009.3 hPa | 0 mm | 1.79 m/s, 54° | 0 W/m² | - |
| 1778037983 | 5° C | 50% | 1009.2 hPa | 0 mm | 2.24 m/s, 322° | 0 W/m² | - |
| 1778037680 | 5° C | 50% | 1009.2 hPa | 0 mm | 2.68 m/s, 329° | 0 W/m² | - |
* Rain latest hour (hover to see other rain measurements)
** Current wind speed in m/s (hover to see current wind gust speed)